createdAt,value
2019-01-11T00:01:36.330Z,6.80
2019-01-11T00:04:41.173Z,7.30
2019-01-11T00:07:46.006Z,8.63
2019-01-11T00:10:50.938Z,7.20
2019-01-11T00:13:55.753Z,6.90
2019-01-11T00:17:00.582Z,7.50
2019-01-11T00:20:08.305Z,7.37
2019-01-11T00:23:13.132Z,7.67
2019-01-11T00:26:17.958Z,7.40
2019-01-11T00:29:22.765Z,7.30
2019-01-11T00:32:27.578Z,8.57
2019-01-11T00:35:32.415Z,8.43
2019-01-11T00:38:37.264Z,8.07
2019-01-11T00:41:42.239Z,7.40
2019-01-11T00:44:47.049Z,7.00
2019-01-11T00:47:51.860Z,7.43
2019-01-11T00:50:56.686Z,10.63
2019-01-11T00:54:01.510Z,8.30
2019-01-11T00:57:06.366Z,7.97
2019-01-11T01:00:14.268Z,7.37
2019-01-11T01:03:19.180Z,8.53
2019-01-11T01:06:24.001Z,8.10
2019-01-11T01:09:28.842Z,8.17
2019-01-11T01:12:33.686Z,8.70
2019-01-11T01:15:38.505Z,8.47
2019-01-11T01:18:43.333Z,10.53
2019-01-11T01:21:48.154Z,10.95
2019-01-11T01:24:52.989Z,9.00
2019-01-11T01:27:57.797Z,9.43
2019-01-11T01:31:02.642Z,11.17
2019-01-11T01:34:07.483Z,9.90
2019-01-11T01:37:12.342Z,10.27
2019-01-11T01:40:18.282Z,10.13
2019-01-11T01:43:23.123Z,11.12
2019-01-11T01:46:27.961Z,10.87
2019-01-11T01:49:32.871Z,11.37
2019-01-11T01:52:37.685Z,10.80
2019-01-11T01:55:42.530Z,11.50
2019-01-11T01:58:47.609Z,12.23
2019-01-11T02:01:52.450Z,12.37
2019-01-11T02:04:57.378Z,14.50
2019-01-11T02:08:03.190Z,13.23
2019-01-11T02:11:08.035Z,14.70
2019-01-11T02:14:12.888Z,13.23
2019-01-11T02:17:18.698Z,14.13
2019-01-11T02:20:23.554Z,17.43
2019-01-11T02:23:28.373Z,13.03
2019-01-11T02:26:33.252Z,16.30
2019-01-11T02:29:38.079Z,14.57
2019-01-11T02:32:42.950Z,18.45
2019-01-11T02:35:47.774Z,19.17
2019-01-11T02:38:52.603Z,16.83
2019-01-11T02:41:57.460Z,15.63
2019-01-11T02:45:02.316Z,20.00
2019-01-11T02:48:07.234Z,25.37
2019-01-11T02:51:12.077Z,22.77
2019-01-11T02:54:16.937Z,20.13
2019-01-11T02:57:21.845Z,18.60
2019-01-11T03:00:26.694Z,23.17
2019-01-11T03:03:31.528Z,22.77
2019-01-11T03:06:36.356Z,22.77
2019-01-11T03:09:41.221Z,25.27
2019-01-11T03:12:46.225Z,23.70
2019-01-11T03:15:52.111Z,29.43
2019-01-11T03:18:56.961Z,27.70
2019-01-11T03:22:01.781Z,27.10
2019-01-11T03:25:08.667Z,29.93
2019-01-11T03:28:14.374Z,27.43
2019-01-11T03:31:20.846Z,34.60
2019-01-11T03:34:25.730Z,28.60
2019-01-11T03:37:30.575Z,28.87
2019-01-11T03:40:35.430Z,27.47
2019-01-11T03:43:40.286Z,30.87
2019-01-11T03:46:45.652Z,32.83
2019-01-11T03:49:54.781Z,31.33
2019-01-11T03:52:57.097Z,28.13
2019-01-11T03:56:01.919Z,33.60
2019-01-11T03:59:06.787Z,31.37
2019-01-11T04:02:11.610Z,31.77
2019-01-11T04:05:16.546Z,30.33
2019-01-11T04:08:21.399Z,32.03
2019-01-11T04:11:26.226Z,31.30
2019-01-11T04:14:31.090Z,28.10
2019-01-11T04:17:35.913Z,30.23
2019-01-11T04:20:40.762Z,31.17
2019-01-11T04:23:45.611Z,40.77
2019-01-11T04:26:50.437Z,29.73
2019-01-11T04:29:55.256Z,29.90
2019-01-11T04:33:00.075Z,26.40
2019-01-11T04:36:05.929Z,33.07
2019-01-11T04:39:10.814Z,25.63
2019-01-11T04:42:15.695Z,30.97
2019-01-11T04:45:20.534Z,31.10
2019-01-11T04:48:25.463Z,26.50
2019-01-11T04:51:30.270Z,30.33
2019-01-11T04:54:35.104Z,31.33
2019-01-11T04:57:40.060Z,27.87
2019-01-11T05:00:44.954Z,31.68
2019-01-11T05:03:49.788Z,26.23
2019-01-11T05:06:54.638Z,30.07
2019-01-11T05:09:59.496Z,32.13
2019-01-11T05:13:06.071Z,29.40
2019-01-11T05:16:10.883Z,35.33
2019-01-11T05:19:15.743Z,26.93
2019-01-11T05:22:20.591Z,27.53
2019-01-11T05:25:25.568Z,31.20
2019-01-11T05:28:30.494Z,34.77
2019-01-11T05:31:35.403Z,33.90
2019-01-11T05:34:40.250Z,32.60
2019-01-11T05:37:45.166Z,30.13
2019-01-11T05:40:50.038Z,30.80
2019-01-11T05:43:54.898Z,29.63
2019-01-11T05:46:59.749Z,30.57
2019-01-11T05:50:07.675Z,34.33
2019-01-11T05:53:12.499Z,31.23
2019-01-11T05:56:17.420Z,32.37
2019-01-11T05:59:22.287Z,33.20
2019-01-11T06:02:27.132Z,27.13
2019-01-11T06:05:32.043Z,32.85
2019-01-11T06:08:37.052Z,31.77
2019-01-11T06:11:41.966Z,35.37
2019-01-11T06:14:46.830Z,30.60
2019-01-11T06:17:51.884Z,32.67
2019-01-11T06:20:56.717Z,31.10
2019-01-11T06:24:01.548Z,31.93
2019-01-11T06:27:06.484Z,37.33
2019-01-11T06:30:13.639Z,28.27
2019-01-11T06:33:18.546Z,30.00
2019-01-11T06:36:23.382Z,30.10
2019-01-11T06:39:28.198Z,35.63
2019-01-11T06:42:33.109Z,29.83
2019-01-11T06:45:37.929Z,31.10
2019-01-11T06:48:42.794Z,29.80
2019-01-11T06:51:47.716Z,28.17
2019-01-11T06:54:52.576Z,29.50
2019-01-11T06:57:57.477Z,30.23
2019-01-11T07:01:02.327Z,29.87
2019-01-11T07:04:07.179Z,25.30
2019-01-11T07:07:11.991Z,30.57
2019-01-11T07:10:23.570Z,26.97
2019-01-11T07:13:28.472Z,28.43
2019-01-11T07:16:33.374Z,24.97
2019-01-11T07:19:38.240Z,27.00
2019-01-11T07:22:43.163Z,27.07
2019-01-11T07:25:47.978Z,28.67
2019-01-11T07:28:52.858Z,27.20
2019-01-11T07:31:59.354Z,28.17
2019-01-11T07:35:05.350Z,23.57
2019-01-11T07:38:10.894Z,22.77
2019-01-11T07:41:15.722Z,22.63
2019-01-11T07:44:21.004Z,25.60
2019-01-11T07:47:25.823Z,23.23
2019-01-11T07:50:30.705Z,21.80
2019-01-11T07:53:35.521Z,23.47
2019-01-11T07:56:40.382Z,24.70
2019-01-11T07:59:45.247Z,17.80
2019-01-11T08:02:50.141Z,21.07
2019-01-11T08:05:54.983Z,17.93
2019-01-11T08:08:59.832Z,16.90
2019-01-11T08:12:05.101Z,18.80
2019-01-11T08:15:13.067Z,19.93
2019-01-11T08:18:17.873Z,16.17
2019-01-11T08:21:22.713Z,18.93
2019-01-11T08:24:27.572Z,18.30
2019-01-11T08:27:32.472Z,16.43
2019-01-11T08:30:37.330Z,15.50
2019-01-11T08:33:42.242Z,15.77
2019-01-11T08:36:47.054Z,19.23
2019-01-11T08:39:51.913Z,14.17
2019-01-11T08:42:57.771Z,15.10
2019-01-11T08:46:02.583Z,19.50
2019-01-11T08:49:07.439Z,16.20
2019-01-11T08:52:12.288Z,14.20
2019-01-11T08:55:17.246Z,14.80
2019-01-11T08:58:22.123Z,13.73
2019-01-11T09:01:26.972Z,14.13
2019-01-11T09:04:31.906Z,15.23
2019-01-11T09:07:36.751Z,14.17
2019-01-11T09:10:41.573Z,13.67
2019-01-11T09:13:46.401Z,14.57
2019-01-11T09:16:51.255Z,17.70
2019-01-11T09:19:56.190Z,15.90
2019-01-11T09:23:01.120Z,14.20
2019-01-11T09:26:05.966Z,14.13
2019-01-11T09:29:10.808Z,17.40
2019-01-11T09:32:15.653Z,14.18
2019-01-11T09:35:20.474Z,16.63
2019-01-11T09:38:25.326Z,15.23
2019-01-11T09:41:30.170Z,16.27
2019-01-11T09:44:35.013Z,19.35
2019-01-11T09:47:39.903Z,22.77
2019-01-11T09:50:44.712Z,17.57
2019-01-11T09:53:49.546Z,17.97
2019-01-11T09:56:54.371Z,17.27
2019-01-11T09:59:59.242Z,17.03
2019-01-11T10:03:05.423Z,18.23
2019-01-11T10:06:10.293Z,19.47
2019-01-11T10:09:15.182Z,17.00
2019-01-11T10:12:20.034Z,18.87
2019-01-11T10:15:24.859Z,19.97
2019-01-11T10:18:30.651Z,21.67
2019-01-11T10:21:35.482Z,19.03
2019-01-11T10:24:40.302Z,22.60
2019-01-11T10:27:45.181Z,18.52
2019-01-11T10:30:50.030Z,25.77
2019-01-11T10:33:54.861Z,27.13
2019-01-11T10:36:59.681Z,29.67
2019-01-11T10:40:07.823Z,28.25
2019-01-11T10:43:12.726Z,30.70
2019-01-11T10:46:19.202Z,30.20
2019-01-11T10:49:24.030Z,34.27
2019-01-11T10:52:28.849Z,31.03
2019-01-11T10:55:33.788Z,30.80
2019-01-11T10:58:38.645Z,30.50
2019-01-11T11:01:43.510Z,28.97
2019-01-11T11:04:48.389Z,31.70
2019-01-11T11:07:53.242Z,27.27
2019-01-11T11:10:58.069Z,27.67
2019-01-11T11:14:02.903Z,28.07
2019-01-11T11:17:07.777Z,27.10
2019-01-11T11:20:14.450Z,23.03
2019-01-11T11:23:19.315Z,21.73
2019-01-11T11:26:24.118Z,21.50
2019-01-11T11:29:28.952Z,18.77
2019-01-11T11:32:35.444Z,19.67
2019-01-11T11:35:40.302Z,18.47
2019-01-11T11:38:46.003Z,22.17
2019-01-11T11:41:50.861Z,15.93
2019-01-11T11:44:56.530Z,14.98
2019-01-11T11:48:01.385Z,16.33
2019-01-11T11:51:06.215Z,18.30
2019-01-11T11:54:11.072Z,18.13
2019-01-11T11:57:15.975Z,18.67
2019-01-11T12:00:22.843Z,19.33
2019-01-11T12:03:27.790Z,20.67
2019-01-11T12:06:32.668Z,21.63
2019-01-11T12:09:37.749Z,19.20
2019-01-11T12:12:42.597Z,18.27
2019-01-11T12:15:47.413Z,17.23
2019-01-11T12:18:52.266Z,14.67
2019-01-11T12:22:01.640Z,16.57
2019-01-11T12:25:04.106Z,14.60
2019-01-11T12:28:08.990Z,13.47
2019-01-11T12:31:13.902Z,14.40
2019-01-11T12:34:18.762Z,12.30
2019-01-11T12:37:23.619Z,12.07
2019-01-11T12:40:28.479Z,12.73
2019-01-11T12:43:33.305Z,13.10
2019-01-11T12:46:38.163Z,17.67
2019-01-11T12:49:44.954Z,14.77
2019-01-11T12:52:49.532Z,16.30
2019-01-11T12:55:54.378Z,18.50
2019-01-11T12:58:59.217Z,15.73
2019-01-11T13:02:04.493Z,19.23
2019-01-11T13:05:11.680Z,14.53
2019-01-11T13:08:16.577Z,14.47
2019-01-11T13:11:21.487Z,18.27
2019-01-11T13:14:26.934Z,19.75
2019-01-11T13:17:31.775Z,19.17
2019-01-11T13:20:37.567Z,18.00
2019-01-11T13:23:42.419Z,17.33
2019-01-11T13:26:47.249Z,17.43
2019-01-11T13:29:52.046Z,16.97
2019-01-11T13:32:56.902Z,17.60
2019-01-11T13:36:03.321Z,14.53
2019-01-11T13:39:10.922Z,14.43
2019-01-11T13:42:15.761Z,14.83
2019-01-11T13:45:20.822Z,12.20
2019-01-11T13:48:25.690Z,11.60
2019-01-11T13:51:30.552Z,12.43
2019-01-11T13:54:35.470Z,13.27
2019-01-11T13:57:40.525Z,11.10
2019-01-11T14:00:45.365Z,12.27
2019-01-11T14:03:50.226Z,15.10
2019-01-11T14:06:56.071Z,17.63
2019-01-11T14:10:00.990Z,14.77
2019-01-11T14:13:06.126Z,13.33
2019-01-11T14:16:11.071Z,11.20
2019-01-11T14:19:15.899Z,10.57
2019-01-11T14:22:20.730Z,10.27
2019-01-11T14:25:25.561Z,11.20
2019-01-11T14:28:30.426Z,10.47
2019-01-11T14:31:35.530Z,10.33
2019-01-11T14:34:40.464Z,10.07
2019-01-11T14:37:45.336Z,9.90
2019-01-11T14:40:50.151Z,9.67
2019-01-11T14:43:55.207Z,10.27
2019-01-11T14:47:00.111Z,9.97
2019-01-11T14:50:08.122Z,11.17
2019-01-11T14:53:12.966Z,10.47
2019-01-11T14:56:17.936Z,9.57
2019-01-11T14:59:22.863Z,11.00
2019-01-11T15:02:27.679Z,9.97
2019-01-11T15:05:32.539Z,11.00
2019-01-11T15:08:37.514Z,10.30
2019-01-11T15:11:42.370Z,10.90
2019-01-11T15:14:47.258Z,11.07
2019-01-11T15:17:52.102Z,10.80
2019-01-11T15:20:56.928Z,11.97
2019-01-11T15:24:01.739Z,11.07
2019-01-11T15:27:06.571Z,11.37
2019-01-11T15:30:18.695Z,11.88
2019-01-11T15:33:23.570Z,11.90
2019-01-11T15:36:28.489Z,12.28
2019-01-11T15:39:33.386Z,12.80
2019-01-11T15:42:39.176Z,13.87
2019-01-11T15:45:44.081Z,13.90
2019-01-11T15:48:49.124Z,14.17
2019-01-11T15:51:54.919Z,11.70
2019-01-11T15:55:00.929Z,12.60
2019-01-11T15:58:05.803Z,13.43
2019-01-11T16:01:10.691Z,12.03
2019-01-11T16:04:15.550Z,11.90
2019-01-11T16:07:20.398Z,10.43
2019-01-11T16:10:25.224Z,9.87
2019-01-11T16:13:30.275Z,10.27
2019-01-11T16:16:35.532Z,10.70
2019-01-11T16:19:40.409Z,11.20
2019-01-11T16:22:45.307Z,11.07
2019-01-11T16:25:50.163Z,11.23
2019-01-11T16:28:55.078Z,12.13
2019-01-11T16:31:59.919Z,11.37
2019-01-11T16:35:06.050Z,12.27
2019-01-11T16:38:10.865Z,12.93
2019-01-11T16:41:15.810Z,12.70
2019-01-11T16:44:20.659Z,13.03
2019-01-11T16:47:26.299Z,14.23
2019-01-11T16:50:31.144Z,14.83
2019-01-11T16:53:36.040Z,13.10
2019-01-11T16:56:40.950Z,13.33
2019-01-11T16:59:45.782Z,14.57
2019-01-11T17:02:50.633Z,15.63
2019-01-11T17:05:55.466Z,14.80
2019-01-11T17:09:00.397Z,17.07
2019-01-11T17:12:05.254Z,15.20
2019-01-11T17:15:13.242Z,14.23
2019-01-11T17:18:18.066Z,14.70
2019-01-11T17:21:22.943Z,15.40
2019-01-11T17:24:27.986Z,15.47
2019-01-11T17:27:32.900Z,15.90
2019-01-11T17:30:37.829Z,12.27
2019-01-11T17:33:42.654Z,13.80
2019-01-11T17:36:47.520Z,14.57
2019-01-11T17:39:52.418Z,13.38
2019-01-11T17:42:57.242Z,13.07
2019-01-11T17:46:02.162Z,16.10
2019-01-11T17:49:07.047Z,13.00
2019-01-11T17:52:11.881Z,13.60
2019-01-11T17:55:16.715Z,13.97
2019-01-11T17:58:21.529Z,17.93
2019-01-11T18:01:26.375Z,12.57
2019-01-11T18:04:31.232Z,13.67
2019-01-11T18:07:36.053Z,14.87
2019-01-11T18:10:40.911Z,10.80
2019-01-11T18:13:45.759Z,10.93
2019-01-11T18:16:50.681Z,10.40
2019-01-11T18:19:55.514Z,10.23
2019-01-11T18:23:06.548Z,12.63
2019-01-11T18:26:06.866Z,10.80
2019-01-11T18:29:11.701Z,9.33
2019-01-11T18:32:16.621Z,11.43
2019-01-11T18:35:22.443Z,11.87
2019-01-11T18:38:27.288Z,9.00
2019-01-11T18:41:32.133Z,11.23
2019-01-11T18:44:36.987Z,9.37
2019-01-11T18:47:41.789Z,9.50
2019-01-11T18:50:46.655Z,6.70
2019-01-11T18:53:51.491Z,9.07
2019-01-11T18:56:56.392Z,8.13
2019-01-11T19:00:01.409Z,14.20
2019-01-11T19:03:06.574Z,11.83
2019-01-11T19:06:11.412Z,14.43
2019-01-11T19:09:16.272Z,12.13
2019-01-11T19:12:21.097Z,11.40
2019-01-11T19:15:27.266Z,11.17
2019-01-11T19:18:32.134Z,10.57
2019-01-11T19:21:36.958Z,8.85
2019-01-11T19:24:41.790Z,8.87
2019-01-11T19:27:46.592Z,10.60
2019-01-11T19:30:51.449Z,13.97
2019-01-11T19:33:56.299Z,14.87
2019-01-11T19:37:01.127Z,14.53
2019-01-11T19:40:11.666Z,13.87
2019-01-11T19:43:16.526Z,13.00
2019-01-11T19:46:21.401Z,11.77
2019-01-11T19:49:26.277Z,13.17
2019-01-11T19:52:31.194Z,13.05
2019-01-11T19:55:36.116Z,21.50
2019-01-11T19:58:40.999Z,15.27
2019-01-11T20:01:45.814Z,11.17
2019-01-11T20:04:50.713Z,15.13
2019-01-11T20:07:56.635Z,13.40
2019-01-11T20:11:01.589Z,13.13
2019-01-11T20:14:06.637Z,16.75
2019-01-11T20:17:14.228Z,13.53
2019-01-11T20:20:18.019Z,21.07
2019-01-11T20:23:22.931Z,17.37
2019-01-11T20:26:27.775Z,20.92
2019-01-11T20:29:32.911Z,19.13
2019-01-11T20:32:38.051Z,16.57
2019-01-11T20:35:42.953Z,16.65
2019-01-11T20:38:47.796Z,18.50
2019-01-11T20:41:52.759Z,17.10
2019-01-11T20:44:57.569Z,21.27
2019-01-11T20:48:02.418Z,18.52
2019-01-11T20:51:07.240Z,23.33
2019-01-11T20:54:12.078Z,25.90
2019-01-11T20:57:16.934Z,16.67
2019-01-11T21:00:24.495Z,21.43
2019-01-11T21:03:29.346Z,29.27
2019-01-11T21:06:34.264Z,20.67
2019-01-11T21:09:39.154Z,33.57
2019-01-11T21:12:44.065Z,24.90
2019-01-11T21:15:48.973Z,27.40
2019-01-11T21:18:53.785Z,20.13
2019-01-11T21:21:58.634Z,32.20
2019-01-11T21:25:04.511Z,31.77
2019-01-11T21:28:09.422Z,27.70
2019-01-11T21:31:14.246Z,32.67
2019-01-11T21:34:19.100Z,32.90
2019-01-11T21:37:23.950Z,32.60
2019-01-11T21:40:28.765Z,26.97
2019-01-11T21:43:33.622Z,29.43
2019-01-11T21:46:38.462Z,27.03
2019-01-11T21:49:43.343Z,24.67
2019-01-11T21:52:48.169Z,33.87
2019-01-11T21:55:53.033Z,31.37
2019-01-11T21:58:57.846Z,38.97
2019-01-11T22:02:02.698Z,33.10
2019-01-11T22:05:07.697Z,35.30
2019-01-11T22:08:12.590Z,32.60
2019-01-11T22:11:17.426Z,31.10
2019-01-11T22:14:22.265Z,26.05
2019-01-11T22:17:27.083Z,28.03
2019-01-11T22:20:32.029Z,36.70
2019-01-11T22:23:36.935Z,32.90
2019-01-11T22:26:41.818Z,39.75
2019-01-11T22:29:46.665Z,34.87
2019-01-11T22:32:51.642Z,30.37
2019-01-11T22:35:56.470Z,26.00
2019-01-11T22:39:02.067Z,32.50
2019-01-11T22:42:07.088Z,45.40
2019-01-11T22:45:13.964Z,36.28
2019-01-11T22:48:18.883Z,37.27
2019-01-11T22:51:23.731Z,42.87
2019-01-11T22:54:29.539Z,38.93
2019-01-11T22:57:34.357Z,40.93
2019-01-11T23:00:50.834Z,37.63
2019-01-11T23:03:56.198Z,36.57
2019-01-11T23:07:05.778Z,40.80
2019-01-11T23:10:19.647Z,48.47
2019-01-11T23:13:24.469Z,46.10
2019-01-11T23:16:32.220Z,40.03
2019-01-11T23:19:37.046Z,42.27
2019-01-11T23:22:41.865Z,38.87
2019-01-11T23:25:46.693Z,37.00
2019-01-11T23:28:51.565Z,37.70
2019-01-11T23:31:57.371Z,34.60
2019-01-11T23:35:02.224Z,49.57
2019-01-11T23:38:07.160Z,35.80
2019-01-11T23:41:12.068Z,44.93
2019-01-11T23:44:16.929Z,37.73
2019-01-11T23:47:22.762Z,43.77
2019-01-11T23:50:28.577Z,34.37
2019-01-11T23:53:33.674Z,40.40
2019-01-11T23:56:38.529Z,36.07
2019-01-11T23:59:43.350Z,44.13
